sensor_id;sensor_type;location;lat;lon;timestamp;pressure;altitude;pressure_sealevel;temperature;humidity
20889;BME280;10604;51.976;7.594;2024-03-02T00:01:25;99381.66;;;27.19;26.40
20889;BME280;10604;51.976;7.594;2024-03-02T00:03:51;99378.72;;;27.79;25.26
20889;BME280;10604;51.976;7.594;2024-03-02T00:06:18;99379.13;;;26.42;26.14
20889;BME280;10604;51.976;7.594;2024-03-02T00:08:44;99386.72;;;26.84;26.28
20889;BME280;10604;51.976;7.594;2024-03-02T00:11:09;99386.41;;;27.46;26.17
20889;BME280;10604;51.976;7.594;2024-03-02T00:13:36;99387.59;;;27.88;25.14
20889;BME280;10604;51.976;7.594;2024-03-02T00:16:02;99378.88;;;27.92;25.47
20889;BME280;10604;51.976;7.594;2024-03-02T00:18:30;99382.41;;;27.57;25.56
20889;BME280;10604;51.976;7.594;2024-03-02T00:20:56;99383.06;;;27.59;25.31
20889;BME280;10604;51.976;7.594;2024-03-02T00:23:22;99378.44;;;27.01;26.22
20889;BME280;10604;51.976;7.594;2024-03-02T00:25:48;99381.84;;;27.47;25.87
20889;BME280;10604;51.976;7.594;2024-03-02T00:30:58;99383.50;;;27.04;26.29
20889;BME280;10604;51.976;7.594;2024-03-02T00:33:26;99381.56;;;27.42;26.35
20889;BME280;10604;51.976;7.594;2024-03-02T00:35:51;99374.16;;;27.50;25.52
20889;BME280;10604;51.976;7.594;2024-03-02T00:38:17;99389.13;;;27.76;25.50
20889;BME280;10604;51.976;7.594;2024-03-02T00:40:42;99377.16;;;27.26;26.13
20889;BME280;10604;51.976;7.594;2024-03-02T00:45:45;99372.38;;;27.72;25.62
20889;BME280;10604;51.976;7.594;2024-03-02T00:48:11;99375.09;;;27.57;25.67
20889;BME280;10604;51.976;7.594;2024-03-02T00:50:36;99368.28;;;28.12;25.52
20889;BME280;10604;51.976;7.594;2024-03-02T00:53:01;99375.66;;;27.67;25.62
20889;BME280;10604;51.976;7.594;2024-03-02T00:55:27;99379.03;;;27.70;25.45
20889;BME280;10604;51.976;7.594;2024-03-02T00:57:52;99368.66;;;28.09;25.33
20889;BME280;10604;51.976;7.594;2024-03-02T01:00:17;99366.03;;;28.01;25.31
20889;BME280;10604;51.976;7.594;2024-03-02T01:02:43;99353.91;;;27.97;25.76
20889;BME280;10604;51.976;7.594;2024-03-02T01:05:10;99364.47;;;27.41;25.50
20889;BME280;10604;51.976;7.594;2024-03-02T01:07:37;99368.41;;;27.53;25.81
20889;BME280;10604;51.976;7.594;2024-03-02T01:10:02;99365.50;;;27.55;25.60
20889;BME280;10604;51.976;7.594;2024-03-02T01:12:28;99353.69;;;27.77;25.93
20889;BME280;10604;51.976;7.594;2024-03-02T01:14:53;99349.44;;;27.53;25.74
20889;BME280;10604;51.976;7.594;2024-03-02T01:17:18;99353.63;;;27.41;25.94
20889;BME280;10604;51.976;7.594;2024-03-02T01:19:44;99348.97;;;27.35;25.77
20889;BME280;10604;51.976;7.594;2024-03-02T01:22:09;99348.41;;;27.40;25.78
20889;BME280;10604;51.976;7.594;2024-03-02T01:24:35;99338.28;;;27.78;25.38
20889;BME280;10604;51.976;7.594;2024-03-02T01:27:00;99333.94;;;28.19;25.21
20889;BME280;10604;51.976;7.594;2024-03-02T01:29:25;99334.25;;;28.31;25.24
20889;BME280;10604;51.976;7.594;2024-03-02T01:31:50;99339.41;;;27.69;25.34
20889;BME280;10604;51.976;7.594;2024-03-02T01:34:16;99339.25;;;27.55;25.66
20889;BME280;10604;51.976;7.594;2024-03-02T01:36:41;99335.50;;;27.92;25.26
20889;BME280;10604;51.976;7.594;2024-03-02T01:39:07;99330.59;;;28.02;25.36
20889;BME280;10604;51.976;7.594;2024-03-02T01:41:34;99328.72;;;28.18;25.42
20889;BME280;10604;51.976;7.594;2024-03-02T01:43:59;99329.75;;;28.02;25.16
20889;BME280;10604;51.976;7.594;2024-03-02T01:46:24;99326.81;;;27.97;25.59
20889;BME280;10604;51.976;7.594;2024-03-02T01:48:50;99330.09;;;27.56;25.53
20889;BME280;10604;51.976;7.594;2024-03-02T01:51:15;99316.19;;;27.81;25.48
20889;BME280;10604;51.976;7.594;2024-03-02T01:53:40;99314.00;;;27.70;25.45
20889;BME280;10604;51.976;7.594;2024-03-02T01:56:05;99308.72;;;27.83;25.68
20889;BME280;10604;51.976;7.594;2024-03-02T01:58:31;99306.69;;;28.27;25.03
20889;BME280;10604;51.976;7.594;2024-03-02T02:00:56;99309.75;;;28.03;25.38
20889;BME280;10604;51.976;7.594;2024-03-02T02:03:21;99312.88;;;27.49;25.50
20889;BME280;10604;51.976;7.594;2024-03-02T02:05:46;99302.22;;;27.98;25.38
20889;BME280;10604;51.976;7.594;2024-03-02T02:08:13;99315.91;;;27.25;25.67
20889;BME280;10604;51.976;7.594;2024-03-02T02:10:38;99307.50;;;27.20;26.12
20889;BME280;10604;51.976;7.594;2024-03-02T02:13:03;99298.09;;;27.66;25.38
20889;BME280;10604;51.976;7.594;2024-03-02T02:15:29;99312.34;;;27.39;25.78
20889;BME280;10604;51.976;7.594;2024-03-02T02:17:55;99303.06;;;27.99;25.09
20889;BME280;10604;51.976;7.594;2024-03-02T02:20:20;99319.31;;;27.99;24.78
20889;BME280;10604;51.976;7.594;2024-03-02T02:22:53;99303.53;;;27.66;25.01
20889;BME280;10604;51.976;7.594;2024-03-02T02:25:18;99314.22;;;27.53;25.32
20889;BME280;10604;51.976;7.594;2024-03-02T02:27:44;99304.09;;;28.19;25.11
20889;BME280;10604;51.976;7.594;2024-03-02T02:30:09;99296.34;;;28.16;25.06
20889;BME280;10604;51.976;7.594;2024-03-02T02:32:34;99301.38;;;27.98;25.22
20889;BME280;10604;51.976;7.594;2024-03-02T02:34:59;99300.75;;;28.17;24.79
20889;BME280;10604;51.976;7.594;2024-03-02T02:37:25;99298.03;;;28.17;24.93
20889;BME280;10604;51.976;7.594;2024-03-02T02:39:50;99293.84;;;28.00;24.68
20889;BME280;10604;51.976;7.594;2024-03-02T02:42:15;99292.81;;;28.01;25.06
20889;BME280;10604;51.976;7.594;2024-03-02T02:44:40;99299.81;;;28.10;24.91
20889;BME280;10604;51.976;7.594;2024-03-02T02:47:05;99284.69;;;28.01;24.88
20889;BME280;10604;51.976;7.594;2024-03-02T02:49:31;99291.91;;;27.94;24.73
20889;BME280;10604;51.976;7.594;2024-03-02T02:51:56;99286.63;;;28.28;24.56
20889;BME280;10604;51.976;7.594;2024-03-02T02:54:21;99286.63;;;28.07;24.65
20889;BME280;10604;51.976;7.594;2024-03-02T02:56:46;99285.97;;;27.62;25.10
20889;BME280;10604;51.976;7.594;2024-03-02T02:59:11;99285.06;;;27.55;25.75
20889;BME280;10604;51.976;7.594;2024-03-02T03:01:37;99280.56;;;27.62;25.14
20889;BME280;10604;51.976;7.594;2024-03-02T03:04:02;99275.41;;;27.89;25.22
20889;BME280;10604;51.976;7.594;2024-03-02T03:06:27;99273.72;;;27.52;25.59
20889;BME280;10604;51.976;7.594;2024-03-02T03:08:52;99276.94;;;27.77;25.35
20889;BME280;10604;51.976;7.594;2024-03-02T03:11:18;99268.47;;;27.50;25.37
20889;BME280;10604;51.976;7.594;2024-03-02T03:13:43;99266.50;;;27.95;24.80
20889;BME280;10604;51.976;7.594;2024-03-02T03:16:08;99276.69;;;28.14;24.67
20889;BME280;10604;51.976;7.594;2024-03-02T03:18:33;99265.75;;;27.50;24.94
20889;BME280;10604;51.976;7.594;2024-03-02T03:20:59;99274.00;;;27.57;25.24
20889;BME280;10604;51.976;7.594;2024-03-02T03:23:24;99284.06;;;27.78;24.98
20889;BME280;10604;51.976;7.594;2024-03-02T03:25:50;99283.66;;;27.81;25.36
20889;BME280;10604;51.976;7.594;2024-03-02T03:28:16;99295.91;;;27.55;25.34
20889;BME280;10604;51.976;7.594;2024-03-02T03:30:41;99281.09;;;28.15;24.49
20889;BME280;10604;51.976;7.594;2024-03-02T03:33:06;99287.94;;;27.90;24.85
20889;BME280;10604;51.976;7.594;2024-03-02T03:35:31;99289.47;;;27.78;25.06
20889;BME280;10604;51.976;7.594;2024-03-02T03:37:57;99281.78;;;28.02;24.87
20889;BME280;10604;51.976;7.594;2024-03-02T03:40:22;99281.72;;;27.96;24.74
20889;BME280;10604;51.976;7.594;2024-03-02T03:42:47;99281.97;;;27.80;25.11
20889;BME280;10604;51.976;7.594;2024-03-02T03:45:13;99281.75;;;27.60;24.83
20889;BME280;10604;51.976;7.594;2024-03-02T03:47:39;99288.03;;;27.60;25.20
20889;BME280;10604;51.976;7.594;2024-03-02T03:50:04;99287.38;;;27.58;24.97
20889;BME280;10604;51.976;7.594;2024-03-02T03:52:32;99294.94;;;27.48;25.63
20889;BME280;10604;51.976;7.594;2024-03-02T03:54:57;99299.88;;;27.45;25.03
20889;BME280;10604;51.976;7.594;2024-03-02T03:57:22;99288.03;;;27.60;25.39
20889;BME280;10604;51.976;7.594;2024-03-02T03:59:47;99293.88;;;27.28;25.38
20889;BME280;10604;51.976;7.594;2024-03-02T04:02:12;99293.72;;;27.51;25.35
20889;BME280;10604;51.976;7.594;2024-03-02T04:04:38;99299.03;;;27.44;25.04
20889;BME280;10604;51.976;7.594;2024-03-02T04:07:03;99300.75;;;27.16;25.48
20889;BME280;10604;51.976;7.594;2024-03-02T04:09:29;99305.72;;;27.27;25.80
20889;BME280;10604;51.976;7.594;2024-03-02T04:11:54;99304.47;;;27.44;25.45
20889;BME280;10604;51.976;7.594;2024-03-02T04:14:19;99305.81;;;27.34;25.29
20889;BME280;10604;51.976;7.594;2024-03-02T04:16:45;99307.28;;;27.36;25.20
20889;BME280;10604;51.976;7.594;2024-03-02T04:19:10;99302.72;;;27.22;25.68
20889;BME280;10604;51.976;7.594;2024-03-02T04:21:35;99300.41;;;26.89;25.65
20889;BME280;10604;51.976;7.594;2024-03-02T04:24:00;99301.47;;;26.80;25.55
20889;BME280;10604;51.976;7.594;2024-03-02T04:26:26;99308.63;;;27.11;25.83
20889;BME280;10604;51.976;7.594;2024-03-02T04:28:51;99313.38;;;27.09;25.82
20889;BME280;10604;51.976;7.594;2024-03-02T04:31:16;99307.69;;;27.33;25.76
20889;BME280;10604;51.976;7.594;2024-03-02T04:33:42;99320.09;;;27.42;25.45
20889;BME280;10604;51.976;7.594;2024-03-02T04:36:07;99319.44;;;27.11;25.94
20889;BME280;10604;51.976;7.594;2024-03-02T04:38:34;99315.31;;;27.44;25.67
20889;BME280;10604;51.976;7.594;2024-03-02T04:40:59;99308.97;;;27.08;25.98
20889;BME280;10604;51.976;7.594;2024-03-02T04:43:24;99308.06;;;27.01;25.92
20889;BME280;10604;51.976;7.594;2024-03-02T04:45:50;99305.72;;;27.12;26.05
20889;BME280;10604;51.976;7.594;2024-03-02T04:48:15;99305.81;;;26.52;26.06
20889;BME280;10604;51.976;7.594;2024-03-02T04:50:40;99311.75;;;26.70;25.83
20889;BME280;10604;51.976;7.594;2024-03-02T04:53:05;99312.53;;;26.94;25.94
20889;BME280;10604;51.976;7.594;2024-03-02T04:55:31;99311.38;;;26.73;26.08
20889;BME280;10604;51.976;7.594;2024-03-02T04:57:59;99311.38;;;26.73;26.18
20889;BME280;10604;51.976;7.594;2024-03-02T05:00:24;99309.56;;;26.66;25.96
20889;BME280;10604;51.976;7.594;2024-03-02T05:02:49;99319.78;;;26.78;26.25
20889;BME280;10604;51.976;7.594;2024-03-02T05:05:14;99321.84;;;26.76;26.29
20889;BME280;10604;51.976;7.594;2024-03-02T05:07:40;99324.53;;;26.76;25.97
20889;BME280;10604;51.976;7.594;2024-03-02T05:10:07;99318.19;;;26.69;25.88
20889;BME280;10604;51.976;7.594;2024-03-02T05:12:32;99322.56;;;26.70;25.99
20889;BME280;10604;51.976;7.594;2024-03-02T05:15:00;99321.03;;;26.53;26.61
20889;BME280;10604;51.976;7.594;2024-03-02T05:17:26;99322.09;;;26.67;26.15
20889;BME280;10604;51.976;7.594;2024-03-02T05:19:51;99327.69;;;26.65;26.02
20889;BME280;10604;51.976;7.594;2024-03-02T05:22:16;99332.28;;;26.79;26.15
20889;BME280;10604;51.976;7.594;2024-03-02T05:24:41;99335.50;;;26.98;25.91
20889;BME280;10604;51.976;7.594;2024-03-02T05:27:07;99336.59;;;26.88;25.98
20889;BME280;10604;51.976;7.594;2024-03-02T05:29:32;99343.75;;;27.19;25.92
20889;BME280;10604;51.976;7.594;2024-03-02T05:31:57;99347.63;;;27.02;26.20
20889;BME280;10604;51.976;7.594;2024-03-02T05:34:23;99342.06;;;26.80;25.92
20889;BME280;10604;51.976;7.594;2024-03-02T05:36:48;99354.09;;;26.63;26.48
20889;BME280;10604;51.976;7.594;2024-03-02T05:39:13;99348.31;;;26.66;26.37
20889;BME280;10604;51.976;7.594;2024-03-02T05:41:39;99346.84;;;26.78;25.91
20889;BME280;10604;51.976;7.594;2024-03-02T05:44:04;99346.94;;;26.70;25.82
20889;BME280;10604;51.976;7.594;2024-03-02T05:46:29;99341.00;;;26.52;26.35
20889;BME280;10604;51.976;7.594;2024-03-02T05:48:54;99345.59;;;26.66;25.84
20889;BME280;10604;51.976;7.594;2024-03-02T05:51:20;99349.44;;;26.86;25.92
20889;BME280;10604;51.976;7.594;2024-03-02T05:53:45;99344.16;;;26.41;26.14
20889;BME280;10604;51.976;7.594;2024-03-02T05:56:10;99346.78;;;26.49;26.28
20889;BME280;10604;51.976;7.594;2024-03-02T05:58:37;99341.72;;;26.46;25.94
20889;BME280;10604;51.976;7.594;2024-03-02T06:01:18;99346.56;;;26.36;26.56
20889;BME280;10604;51.976;7.594;2024-03-02T06:03:43;99342.25;;;26.19;26.48
20889;BME280;10604;51.976;7.594;2024-03-02T06:06:09;99341.22;;;26.28;26.74
20889;BME280;10604;51.976;7.594;2024-03-02T06:08:34;99334.44;;;26.01;26.77
20889;BME280;10604;51.976;7.594;2024-03-02T06:11:00;99343.06;;;26.50;26.14
20889;BME280;10604;51.976;7.594;2024-03-02T06:13:25;99361.53;;;26.16;26.79
20889;BME280;10604;51.976;7.594;2024-03-02T06:15:51;99358.78;;;26.24;26.93
20889;BME280;10604;51.976;7.594;2024-03-02T06:18:16;99354.22;;;26.24;26.64
20889;BME280;10604;51.976;7.594;2024-03-02T06:20:41;99355.69;;;26.35;26.36
20889;BME280;10604;51.976;7.594;2024-03-02T06:23:07;99356.66;;;26.42;26.42
20889;BME280;10604;51.976;7.594;2024-03-02T06:25:32;99370.59;;;26.31;26.85
20889;BME280;10604;51.976;7.594;2024-03-02T06:27:58;99376.09;;;26.60;26.44
20889;BME280;10604;51.976;7.594;2024-03-02T06:30:23;99368.72;;;26.31;26.14
20889;BME280;10604;51.976;7.594;2024-03-02T06:32:48;99371.19;;;26.41;26.60
20889;BME280;10604;51.976;7.594;2024-03-02T06:35:14;99375.66;;;26.34;26.27
20889;BME280;10604;51.976;7.594;2024-03-02T06:37:39;99378.53;;;26.32;26.29
20889;BME280;10604;51.976;7.594;2024-03-02T06:40:05;99370.53;;;26.39;26.47
20889;BME280;10604;51.976;7.594;2024-03-02T06:42:32;99362.19;;;26.26;26.10
20889;BME280;10604;51.976;7.594;2024-03-02T06:44:58;99365.72;;;26.49;26.36
20889;BME280;10604;51.976;7.594;2024-03-02T06:47:23;99367.63;;;26.18;26.14
20889;BME280;10604;51.976;7.594;2024-03-02T06:49:48;99371.06;;;26.57;26.58
20889;BME280;10604;51.976;7.594;2024-03-02T06:52:14;99374.19;;;26.46;26.22
20889;BME280;10604;51.976;7.594;2024-03-02T06:54:39;99375.38;;;26.66;26.02
20889;BME280;10604;51.976;7.594;2024-03-02T06:57:04;99371.06;;;26.95;26.40
20889;BME280;10604;51.976;7.594;2024-03-02T06:59:29;99374.16;;;26.92;26.36
20889;BME280;10604;51.976;7.594;2024-03-02T07:01:54;99379.81;;;26.59;26.44
20889;BME280;10604;51.976;7.594;2024-03-02T07:04:20;99383.31;;;26.91;26.08
20889;BME280;10604;51.976;7.594;2024-03-02T07:06:45;99388.16;;;26.95;26.21
20889;BME280;10604;51.976;7.594;2024-03-02T07:09:10;99385.84;;;27.07;26.05
20889;BME280;10604;51.976;7.594;2024-03-02T07:11:36;99392.09;;;26.93;26.15
20889;BME280;10604;51.976;7.594;2024-03-02T07:14:01;99392.19;;;26.76;26.66
20889;BME280;10604;51.976;7.594;2024-03-02T07:16:26;99392.75;;;26.86;26.30
20889;BME280;10604;51.976;7.594;2024-03-02T07:18:58;99403.47;;;27.03;25.96
20889;BME280;10604;51.976;7.594;2024-03-02T07:21:24;99392.75;;;27.09;26.42
20889;BME280;10604;51.976;7.594;2024-03-02T07:23:49;99398.28;;;27.31;26.12
20889;BME280;10604;51.976;7.594;2024-03-02T07:26:15;99399.03;;;27.39;25.86
20889;BME280;10604;51.976;7.594;2024-03-02T07:28:41;99402.75;;;27.38;26.10
20889;BME280;10604;51.976;7.594;2024-03-02T07:31:06;99406.69;;;27.21;26.28
20889;BME280;10604;51.976;7.594;2024-03-02T07:33:32;99420.69;;;27.39;26.02
20889;BME280;10604;51.976;7.594;2024-03-02T07:35:57;99416.78;;;27.27;26.37
20889;BME280;10604;51.976;7.594;2024-03-02T07:38:24;99416.69;;;27.64;26.01
20889;BME280;10604;51.976;7.594;2024-03-02T07:40:50;99421.88;;;27.22;26.69
20889;BME280;10604;51.976;7.594;2024-03-02T07:43:18;99429.56;;;27.33;26.41
20889;BME280;10604;51.976;7.594;2024-03-02T07:45:44;99429.50;;;27.71;25.91
20889;BME280;10604;51.976;7.594;2024-03-02T07:48:09;99423.53;;;27.60;26.22
20889;BME280;10604;51.976;7.594;2024-03-02T07:50:35;99424.72;;;27.73;25.94
20889;BME280;10604;51.976;7.594;2024-03-02T07:53:00;99429.63;;;28.13;25.43
20889;BME280;10604;51.976;7.594;2024-03-02T07:55:26;99444.06;;;27.99;25.65
20889;BME280;10604;51.976;7.594;2024-03-02T07:57:51;99435.13;;;27.69;25.67
20889;BME280;10604;51.976;7.594;2024-03-02T08:00:16;99438.16;;;27.95;25.60
20889;BME280;10604;51.976;7.594;2024-03-02T08:02:41;99447.94;;;28.26;25.50
20889;BME280;10604;51.976;7.594;2024-03-02T08:05:07;99443.13;;;27.92;25.34
20889;BME280;10604;51.976;7.594;2024-03-02T08:07:32;99440.66;;;28.26;25.45
20889;BME280;10604;51.976;7.594;2024-03-02T08:09:58;99434.34;;;28.62;25.17
20889;BME280;10604;51.976;7.594;2024-03-02T08:12:23;99437.50;;;28.44;25.32
20889;BME280;10604;51.976;7.594;2024-03-02T08:14:48;99447.97;;;28.11;25.76
20889;BME280;10604;51.976;7.594;2024-03-02T08:17:14;99446.34;;;28.53;25.40
20889;BME280;10604;51.976;7.594;2024-03-02T08:19:39;99445.97;;;28.56;25.44
20889;BME280;10604;51.976;7.594;2024-03-02T08:22:04;99440.41;;;28.85;25.13
20889;BME280;10604;51.976;7.594;2024-03-02T08:24:29;99443.63;;;28.74;25.17
20889;BME280;10604;51.976;7.594;2024-03-02T08:26:55;99437.44;;;28.59;25.25
20889;BME280;10604;51.976;7.594;2024-03-02T08:29:20;99444.97;;;28.06;25.78
20889;BME280;10604;51.976;7.594;2024-03-02T08:31:45;99432.41;;;29.26;25.01
20889;BME280;10604;51.976;7.594;2024-03-02T08:34:10;99431.75;;;29.52;24.62
20889;BME280;10604;51.976;7.594;2024-03-02T08:36:35;99438.00;;;29.46;24.63
20889;BME280;10604;51.976;7.594;2024-03-02T08:39:01;99444.16;;;29.33;24.53
20889;BME280;10604;51.976;7.594;2024-03-02T08:41:27;99445.44;;;29.72;24.29
20889;BME280;10604;51.976;7.594;2024-03-02T08:43:52;99454.25;;;29.11;25.07
20889;BME280;10604;51.976;7.594;2024-03-02T08:46:17;99448.97;;;29.66;24.50
20889;BME280;10604;51.976;7.594;2024-03-02T08:48:42;99443.50;;;29.59;24.55
20889;BME280;10604;51.976;7.594;2024-03-02T08:51:07;99452.47;;;29.25;24.77
20889;BME280;10604;51.976;7.594;2024-03-02T08:53:35;99458.50;;;30.24;24.07
20889;BME280;10604;51.976;7.594;2024-03-02T08:56:00;99463.09;;;30.30;24.09
20889;BME280;10604;51.976;7.594;2024-03-02T08:58:25;99469.31;;;30.11;24.36
20889;BME280;10604;51.976;7.594;2024-03-02T09:00:51;99467.09;;;30.34;24.06
20889;BME280;10604;51.976;7.594;2024-03-02T09:03:16;99472.50;;;28.75;25.17
20889;BME280;10604;51.976;7.594;2024-03-02T09:05:41;99475.03;;;27.60;26.70
20889;BME280;10604;51.976;7.594;2024-03-02T09:08:07;99467.91;;;29.87;24.52
20889;BME280;10604;51.976;7.594;2024-03-02T09:10:33;99473.19;;;30.49;24.08
20889;BME280;10604;51.976;7.594;2024-03-02T09:12:58;99479.34;;;30.04;24.38
20889;BME280;10604;51.976;7.594;2024-03-02T09:15:23;99470.13;;;30.59;24.09
20889;BME280;10604;51.976;7.594;2024-03-02T09:17:49;99477.69;;;30.09;24.19
20889;BME280;10604;51.976;7.594;2024-03-02T09:20:14;99470.81;;;31.20;23.44
20889;BME280;10604;51.976;7.594;2024-03-02T09:22:39;99474.38;;;31.27;23.38
20889;BME280;10604;51.976;7.594;2024-03-02T09:25:04;99479.16;;;30.72;23.86
20889;BME280;10604;51.976;7.594;2024-03-02T09:27:30;99482.16;;;31.30;23.20
20889;BME280;10604;51.976;7.594;2024-03-02T09:29:55;99487.16;;;31.66;23.32
20889;BME280;10604;51.976;7.594;2024-03-02T09:32:20;99476.25;;;30.94;23.22
20889;BME280;10604;51.976;7.594;2024-03-02T09:34:46;99475.41;;;31.52;23.17
20889;BME280;10604;51.976;7.594;2024-03-02T09:37:13;99484.25;;;31.61;23.28
20889;BME280;10604;51.976;7.594;2024-03-02T09:39:38;99475.81;;;30.84;23.79
20889;BME280;10604;51.976;7.594;2024-03-02T09:42:03;99477.13;;;31.60;23.37
20889;BME280;10604;51.976;7.594;2024-03-02T09:44:29;99472.47;;;30.82;23.80
20889;BME280;10604;51.976;7.594;2024-03-02T09:46:54;99465.81;;;31.24;23.58
20889;BME280;10604;51.976;7.594;2024-03-02T09:49:20;99472.56;;;32.05;22.44
20889;BME280;10604;51.976;7.594;2024-03-02T09:51:46;99470.97;;;32.80;22.00
20889;BME280;10604;51.976;7.594;2024-03-02T09:54:12;99475.75;;;32.85;21.76
20889;BME280;10604;51.976;7.594;2024-03-02T09:56:37;99467.22;;;33.31;21.65
20889;BME280;10604;51.976;7.594;2024-03-02T09:59:03;99463.94;;;33.84;21.53
20889;BME280;10604;51.976;7.594;2024-03-02T10:01:29;99470.75;;;33.56;21.95
20889;BME280;10604;51.976;7.594;2024-03-02T10:03:55;99475.69;;;32.91;21.13
20889;BME280;10604;51.976;7.594;2024-03-02T10:06:22;99467.69;;;34.85;20.71
20889;BME280;10604;51.976;7.594;2024-03-02T10:08:48;99478.03;;;33.62;20.65
20889;BME280;10604;51.976;7.594;2024-03-02T10:11:26;99479.47;;;32.08;21.87
20889;BME280;10604;51.976;7.594;2024-03-02T10:14:03;99483.34;;;32.45;22.13
20889;BME280;10604;51.976;7.594;2024-03-02T10:16:29;99476.16;;;32.88;21.61
20889;BME280;10604;51.976;7.594;2024-03-02T10:18:54;99473.94;;;31.63;22.40
20889;BME280;10604;51.976;7.594;2024-03-02T10:21:19;99476.34;;;33.43;21.19
20889;BME280;10604;51.976;7.594;2024-03-02T10:23:44;99471.75;;;34.65;20.53
20889;BME280;10604;51.976;7.594;2024-03-02T10:26:18;99473.72;;;34.76;20.50
20889;BME280;10604;51.976;7.594;2024-03-02T10:28:47;99480.78;;;35.83;19.52
20889;BME280;10604;51.976;7.594;2024-03-02T10:31:24;99477.81;;;34.85;19.58
20889;BME280;10604;51.976;7.594;2024-03-02T10:33:52;99473.06;;;34.14;20.41
20889;BME280;10604;51.976;7.594;2024-03-02T10:36:18;99466.75;;;35.03;20.17
20889;BME280;10604;51.976;7.594;2024-03-02T10:38:43;99453.00;;;36.20;19.42
20889;BME280;10604;51.976;7.594;2024-03-02T10:41:09;99465.09;;;35.02;20.08
20889;BME280;10604;51.976;7.594;2024-03-02T10:43:34;99451.47;;;34.24;20.47
20889;BME280;10604;51.976;7.594;2024-03-02T10:46:00;99464.34;;;34.24;20.86
20889;BME280;10604;51.976;7.594;2024-03-02T10:48:26;99459.97;;;34.34;20.11
20889;BME280;10604;51.976;7.594;2024-03-02T10:50:54;99457.84;;;34.66;20.06
20889;BME280;10604;51.976;7.594;2024-03-02T10:53:20;99454.25;;;35.07;20.22
20889;BME280;10604;51.976;7.594;2024-03-02T10:55:45;99459.84;;;34.29;20.69
20889;BME280;10604;51.976;7.594;2024-03-02T10:58:14;99465.44;;;33.12;21.60
20889;BME280;10604;51.976;7.594;2024-03-02T11:00:40;99443.41;;;33.93;20.34
20889;BME280;10604;51.976;7.594;2024-03-02T11:03:06;99454.47;;;34.94;20.47
20889;BME280;10604;51.976;7.594;2024-03-02T11:05:36;99457.50;;;34.44;20.33
20889;BME280;10604;51.976;7.594;2024-03-02T11:08:06;99453.22;;;34.48;20.90
20889;BME280;10604;51.976;7.594;2024-03-02T11:10:35;99452.13;;;35.56;19.94
20889;BME280;10604;51.976;7.594;2024-03-02T11:13:02;99458.47;;;35.21;20.01
20889;BME280;10604;51.976;7.594;2024-03-02T11:15:30;99440.75;;;34.52;20.37
20889;BME280;10604;51.976;7.594;2024-03-02T11:17:56;99445.69;;;35.85;19.61
20889;BME280;10604;51.976;7.594;2024-03-02T11:20:22;99447.88;;;36.23;19.56
20889;BME280;10604;51.976;7.594;2024-03-02T11:22:48;99456.34;;;34.82;19.66
20889;BME280;10604;51.976;7.594;2024-03-02T11:25:23;99454.28;;;35.77;19.78
20889;BME280;10604;51.976;7.594;2024-03-02T11:32:58;99445.16;;;32.70;21.18
20889;BME280;10604;51.976;7.594;2024-03-02T11:35:27;99443.88;;;33.71;21.00
20889;BME280;10604;51.976;7.594;2024-03-02T11:37:55;99437.44;;;35.39;20.23
20889;BME280;10604;51.976;7.594;2024-03-02T11:40:24;99449.94;;;36.61;19.40
20889;BME280;10604;51.976;7.594;2024-03-02T11:42:49;99441.09;;;37.04;19.03
20889;BME280;10604;51.976;7.594;2024-03-02T11:45:33;99443.03;;;35.67;19.49
20889;BME280;10604;51.976;7.594;2024-03-02T11:47:59;99445.72;;;36.14;19.51
20889;BME280;10604;51.976;7.594;2024-03-02T11:50:36;99437.38;;;36.94;18.63
20889;BME280;10604;51.976;7.594;2024-03-02T11:53:05;99449.50;;;36.36;19.22
20889;BME280;10604;51.976;7.594;2024-03-02T11:55:31;99442.69;;;35.75;19.74
20889;BME280;10604;51.976;7.594;2024-03-02T11:57:59;99444.13;;;36.58;19.21
20889;BME280;10604;51.976;7.594;2024-03-02T12:00:25;99435.44;;;36.49;18.68
20889;BME280;10604;51.976;7.594;2024-03-02T12:05:46;99429.66;;;35.94;19.59
20889;BME280;10604;51.976;7.594;2024-03-02T12:08:13;99423.84;;;35.32;20.00
20889;BME280;10604;51.976;7.594;2024-03-02T12:10:38;99423.75;;;36.42;19.54
20889;BME280;10604;51.976;7.594;2024-03-02T12:13:04;99419.53;;;36.79;19.20
20889;BME280;10604;51.976;7.594;2024-03-02T12:15:30;99413.13;;;36.62;19.02
20889;BME280;10604;51.976;7.594;2024-03-02T12:17:56;99415.97;;;36.10;19.36
20889;BME280;10604;51.976;7.594;2024-03-02T12:20:22;99421.00;;;36.14;19.34
20889;BME280;10604;51.976;7.594;2024-03-02T12:22:49;99410.78;;;36.54;18.73
20889;BME280;10604;51.976;7.594;2024-03-02T12:25:14;99408.47;;;36.06;19.70
20889;BME280;10604;51.976;7.594;2024-03-02T12:27:40;99406.13;;;36.38;19.29
20889;BME280;10604;51.976;7.594;2024-03-02T12:30:06;99404.81;;;36.00;19.27
20889;BME280;10604;51.976;7.594;2024-03-02T12:32:35;99388.66;;;34.94;19.25
20889;BME280;10604;51.976;7.594;2024-03-02T12:35:00;99401.16;;;36.11;19.51
20889;BME280;10604;51.976;7.594;2024-03-02T12:37:26;99399.44;;;35.30;19.37
20889;BME280;10604;51.976;7.594;2024-03-02T12:39:52;99392.69;;;36.86;18.93
20889;BME280;10604;51.976;7.594;2024-03-02T12:42:17;99393.81;;;34.61;20.07
20889;BME280;10604;51.976;7.594;2024-03-02T12:44:43;99383.81;;;36.51;19.15
20889;BME280;10604;51.976;7.594;2024-03-02T12:47:08;99395.97;;;35.98;19.02
20889;BME280;10604;51.976;7.594;2024-03-02T12:49:33;99390.59;;;36.94;18.87
20889;BME280;10604;51.976;7.594;2024-03-02T12:52:00;99385.00;;;36.88;18.63
20889;BME280;10604;51.976;7.594;2024-03-02T12:54:25;99391.63;;;36.02;19.08
20889;BME280;10604;51.976;7.594;2024-03-02T12:56:51;99387.22;;;35.73;19.30
20889;BME280;10604;51.976;7.594;2024-03-02T12:59:19;99384.66;;;36.68;18.71
20889;BME280;10604;51.976;7.594;2024-03-02T13:01:50;99383.84;;;36.84;18.60
20889;BME280;10604;51.976;7.594;2024-03-02T13:04:15;99392.09;;;36.23;18.92
20889;BME280;10604;51.976;7.594;2024-03-02T13:06:40;99384.59;;;35.55;19.58